Time;durP1;ratioP1;P1;durP2;ratioP2;P2;SDS_P1;SDS_P2;PMS_P1;PMS_P2;Temp;Humidity;BMP_temperature;BMP_pressure;BME280_temperature;BME280_humidity;BME280_pressure;Samples;Min_cycle;Max_cycle;Signal;HPM_P1;HPM_P2
2023/04/05 00:00:53;;;;;;;6.03;5.43;;;2.70;93.90;;;;;;5025262;28;20255;-64
2023/04/05 00:03:19;;;;;;;5.95;5.45;;;2.70;94.30;;;;;;5029228;28;20464;-64
2023/04/05 00:05:45;;;;;;;7.20;6.50;;;2.10;93.90;;;;;;5030965;28;20551;-64
2023/04/05 00:08:22;;;;;;;6.57;5.80;;;2.30;94.10;;;;;;5029760;28;20185;-64
2023/04/05 00:10:48;;;;;;;6.65;5.90;;;2.90;94.50;;;;;;5027206;28;20540;-64
2023/04/05 00:13:13;;;;;;;7.20;5.90;;;2.80;94.60;;;;;;5026660;28;20214;-65
2023/04/05 00:15:39;;;;;;;7.30;6.40;;;2.80;94.70;;;;;;5027615;28;20461;-66
2023/04/05 00:18:05;;;;;;;7.03;6.43;;;2.90;94.80;;;;;;5020027;28;20348;-65
2023/04/05 00:20:32;;;;;;;7.40;6.40;;;2.80;94.70;;;;;;5026102;28;20261;-64
2023/04/05 00:22:58;;;;;;;6.07;5.45;;;2.30;94.50;;;;;;5024725;28;20206;-64
2023/04/05 00:25:25;;;;;;;7.82;6.30;;;2.70;94.60;;;;;;5025835;28;20201;-64
2023/04/05 00:27:50;;;;;;;6.72;6.03;;;2.90;94.80;;;;;;5025909;28;20190;-64
2023/04/05 00:30:19;;;;;;;8.37;6.60;;;3.10;94.80;;;;;;5024872;28;20183;-65
2023/04/05 00:32:48;;;;;;;6.45;5.78;;;2.80;94.70;;;;;;5025419;28;20248;-64
2023/04/05 00:35:15;;;;;;;7.72;6.20;;;2.80;94.50;;;;;;5020873;28;20191;-65
2023/04/05 00:37:40;;;;;;;7.88;5.70;;;2.80;94.40;;;;;;5023466;28;20187;-64
2023/04/05 00:40:07;;;;;;;6.83;6.13;;;2.70;94.40;;;;;;5026967;28;20205;-64
2023/04/05 00:42:32;;;;;;;7.72;6.07;;;2.80;95.30;;;;;;5026351;28;20211;-64
2023/04/05 00:44:58;;;;;;;10.23;5.30;;;2.50;95.10;;;;;;5028608;28;20749;-64
2023/04/05 00:47:23;;;;;;;6.53;5.37;;;3.40;95.30;;;;;;5030840;28;20209;-63
2023/04/05 00:49:49;;;;;;;5.90;5.40;;;2.90;95.10;;;;;;5037614;28;20186;-64
2023/04/05 00:52:18;;;;;;;8.07;5.28;;;2.90;95.30;;;;;;5030321;28;20303;-64
2023/04/05 00:54:44;;;;;;;6.50;5.85;;;2.70;95.20;;;;;;5030545;28;20229;-64
2023/04/05 00:57:10;;;;;;;6.25;5.32;;;2.70;95.30;;;;;;5029522;28;20179;-64
2023/04/05 00:59:35;;;;;;;6.17;5.57;;;2.60;95.40;;;;;;5030059;28;20554;-64
2023/04/05 01:02:25;;;;;;;6.17;5.50;;;2.60;95.20;;;;;;5030205;28;20457;-64
2023/04/05 01:05:00;;;;;;;7.00;5.45;;;2.80;95.70;;;;;;5029715;28;20194;-64
2023/04/05 01:07:44;;;;;;;6.13;4.90;;;2.80;95.70;;;;;;5031398;28;20547;-66
2023/04/05 01:10:13;;;;;;;5.75;5.25;;;2.50;95.50;;;;;;5028981;28;20269;-66
2023/04/05 01:12:40;;;;;;;7.05;5.57;;;2.60;95.20;;;;;;5029323;28;20704;-65
2023/04/05 01:15:06;;;;;;;6.07;5.50;;;2.90;95.80;;;;;;5028816;28;20221;-64
2023/04/05 01:17:37;;;;;;;7.68;6.15;;;2.60;95.50;;;;;;5029202;28;20179;-65
2023/04/05 01:20:11;;;;;;;6.68;6.07;;;2.50;95.60;;;;;;5026146;28;20195;-64
2023/04/05 01:22:50;;;;;;;6.35;5.60;;;2.70;95.80;;;;;;5023151;28;20206;-64
2023/04/05 01:25:38;;;;;;;6.75;5.95;;;2.60;95.80;;;;;;5030903;28;20676;-64
2023/04/05 01:28:51;;;;;;;8.43;5.78;;;2.80;95.90;;;;;;5029034;28;20202;-64
2023/04/05 01:31:50;;;;;;;9.32;5.50;;;2.40;95.90;;;;;;5028849;28;20601;-64
2023/04/05 01:34:40;;;;;;;9.68;6.45;;;2.40;96.20;;;;;;5030639;28;20293;-64
2023/04/05 01:37:10;;;;;;;6.97;6.38;;;2.40;96.30;;;;;;5028434;28;20186;-64
2023/04/05 01:39:37;;;;;;;7.55;6.05;;;2.50;96.40;;;;;;5035566;28;20183;-64
2023/04/05 01:42:03;;;;;;;6.50;5.90;;;2.50;97.00;;;;;;5028818;28;20317;-65
2023/04/05 01:44:29;;;;;;;6.32;5.72;;;2.60;97.30;;;;;;5032046;28;20259;-64
2023/04/05 01:46:55;;;;;;;8.30;5.77;;;2.70;96.40;;;;;;5032916;28;20201;-65
2023/04/05 01:49:21;;;;;;;6.20;5.60;;;2.60;96.30;;;;;;5034996;28;20281;-65
2023/04/05 01:51:47;;;;;;;6.70;5.63;;;2.10;96.30;;;;;;5030317;28;20217;-64
2023/04/05 01:54:13;;;;;;;8.03;5.93;;;2.50;96.20;;;;;;5031094;28;20219;-65
2023/04/05 01:56:39;;;;;;;6.10;5.50;;;2.60;96.50;;;;;;5027597;28;20703;-64
2023/04/05 01:59:04;;;;;;;6.53;5.87;;;2.40;96.50;;;;;;5030077;28;20265;-64
2023/04/05 02:01:30;;;;;;;6.13;5.53;;;2.70;96.60;;;;;;5029160;28;20457;-65
2023/04/05 02:03:56;;;;;;;6.73;5.97;;;2.50;96.50;;;;;;5024269;28;20287;-66
2023/04/05 02:06:22;;;;;;;7.10;5.37;;;2.50;96.70;;;;;;5023846;28;20201;-66
2023/04/05 02:08:47;;;;;;;6.90;5.50;;;2.60;96.40;;;;;;5028867;28;20472;-65
2023/04/05 02:11:13;;;;;;;5.50;4.97;;;2.60;96.20;;;;;;5028090;28;20989;-65
2023/04/05 02:13:38;;;;;;;7.47;5.77;;;2.30;96.00;;;;;;5029042;28;20614;-64
2023/04/05 02:16:04;;;;;;;5.90;5.30;;;2.50;96.30;;;;;;5025558;28;20187;-64
2023/04/05 02:18:30;;;;;;;6.30;5.53;;;2.60;96.50;;;;;;5027000;28;20179;-66
2023/04/05 02:21:03;;;;;;;6.60;5.90;;;2.10;95.90;;;;;;5030745;28;20231;-64
2023/04/05 02:23:30;;;;;;;6.90;6.10;;;2.40;96.50;;;;;;5025793;28;20729;-64
2023/04/05 02:25:57;;;;;;;6.90;5.85;;;2.30;96.80;;;;;;5030098;28;20554;-64
2023/04/05 02:28:22;;;;;;;7.05;6.35;;;2.20;96.90;;;;;;5030447;28;20182;-63
2023/04/05 02:30:48;;;;;;;6.63;6.00;;;2.60;97.30;;;;;;5028053;28;20198;-64
2023/04/05 02:33:14;;;;;;;6.90;5.53;;;2.30;97.20;;;;;;5030870;28;20480;-64
2023/04/05 02:35:40;;;;;;;7.47;6.20;;;2.30;97.30;;;;;;5027078;28;20623;-66
2023/04/05 02:38:06;;;;;;;7.28;6.10;;;2.10;97.30;;;;;;5031148;28;20224;-65
2023/04/05 02:40:33;;;;;;;6.68;5.90;;;2.20;97.40;;;;;;5030092;28;20646;-65
2023/04/05 02:42:58;;;;;;;6.15;5.55;;;2.10;98.10;;;;;;5033073;28;20585;-65
2023/04/05 02:45:26;;;;;;;6.10;5.50;;;2.40;98.10;;;;;;5029580;28;20197;-66
2023/04/05 02:47:53;;;;;;;8.27;5.80;;;2.70;98.00;;;;;;5033878;28;20204;-65
2023/04/05 02:50:19;;;;;;;8.60;6.03;;;1.60;97.40;;;;;;5032153;28;20213;-65
2023/04/05 02:52:46;;;;;;;6.57;5.60;;;2.20;97.80;;;;;;5028948;28;20225;-65
2023/04/05 02:55:12;;;;;;;6.10;5.55;;;2.10;97.80;;;;;;5027807;28;20232;-64
2023/04/05 02:57:38;;;;;;;7.70;6.20;;;1.80;97.60;;;;;;5029005;28;20182;-65
2023/04/05 03:00:06;;;;;;;6.63;5.37;;;2.20;97.70;;;;;;5029125;28;20927;-62
2023/04/05 03:02:31;;;;;;;8.48;5.63;;;2.00;97.50;;;;;;5023458;28;20469;-63
2023/04/05 03:04:57;;;;;;;6.90;5.60;;;2.00;97.80;;;;;;5027410;28;20616;-62
2023/04/05 03:07:24;;;;;;;6.83;5.67;;;2.30;98.00;;;;;;5025955;28;20670;-63
2023/04/05 03:09:50;;;;;;;7.07;5.95;;;2.70;98.10;;;;;;5026935;28;20240;-63
2023/04/05 03:12:16;;;;;;;7.10;6.27;;;1.60;97.50;;;;;;5027290;28;20206;-63
2023/04/05 03:14:41;;;;;;;6.47;5.43;;;2.30;97.90;;;;;;5025722;28;20226;-62
2023/04/05 03:17:07;;;;;;;7.37;6.23;;;2.10;97.60;;;;;;5026683;28;20191;-63
2023/04/05 03:19:34;;;;;;;7.50;6.10;;;2.10;98.00;;;;;;5026118;28;20441;-62
2023/04/05 03:22:00;;;;;;;7.18;5.97;;;1.70;98.20;;;;;;5025009;28;20202;-63
2023/04/05 03:24:26;;;;;;;9.10;6.20;;;2.30;98.10;;;;;;5024432;28;20186;-62
2023/04/05 03:26:51;;;;;;;8.70;7.03;;;2.20;98.10;;;;;;5025095;28;20186;-63
2023/04/05 03:29:17;;;;;;;7.35;6.15;;;2.20;98.20;;;;;;5026996;28;20451;-63
2023/04/05 03:31:44;;;;;;;6.90;6.00;;;2.40;98.10;;;;;;5024061;28;20237;-63
2023/04/05 03:34:09;;;;;;;6.32;5.72;;;2.10;98.50;;;;;;5025528;28;20210;-62
2023/04/05 03:36:41;;;;;;;7.53;6.37;;;2.20;98.60;;;;;;5023710;28;20702;-62
2023/04/05 03:39:10;;;;;;;6.43;5.82;;;1.90;98.60;;;;;;5022730;28;20651;-63
2023/04/05 03:41:37;;;;;;;7.97;5.80;;;2.00;99.00;;;;;;5025152;28;20206;-62
2023/04/05 03:44:03;;;;;;;6.90;6.03;;;2.00;99.30;;;;;;5023569;28;20281;-62
2023/04/05 03:46:29;;;;;;;7.07;5.82;;;2.00;98.90;;;;;;5024825;28;20282;-62
2023/04/05 03:48:56;;;;;;;6.55;5.85;;;1.90;98.70;;;;;;5026867;28;20273;-63
2023/04/05 03:51:22;;;;;;;6.03;5.30;;;1.70;98.70;;;;;;5026246;28;20279;-62
2023/04/05 03:53:48;;;;;;;7.50;5.97;;;1.80;98.60;;;;;;5023572;28;20214;-62
2023/04/05 03:56:14;;;;;;;6.82;5.90;;;1.90;99.00;;;;;;5025405;28;20648;-62
2023/04/05 03:58:40;;;;;;;6.47;5.75;;;1.90;99.00;;;;;;5026040;28;20189;-62
2023/04/05 04:01:06;;;;;;;7.80;6.47;;;2.00;99.10;;;;;;5023401;28;20658;-63
2023/04/05 04:03:32;;;;;;;7.20;6.17;;;1.80;99.30;;;;;;5024480;28;20856;-62
2023/04/05 04:05:57;;;;;;;10.90;6.60;;;1.70;99.40;;;;;;5022539;28;20974;-62
2023/04/05 04:08:23;;;;;;;10.20;7.10;;;1.90;99.60;;;;;;5026228;28;20195;-63
2023/04/05 04:10:49;;;;;;;7.23;5.93;;;1.70;99.30;;;;;;5023131;28;20636;-64
2023/04/05 04:13:18;;;;;;;6.55;5.90;;;1.70;99.40;;;;;;5023113;28;20264;-64
2023/04/05 04:15:44;;;;;;;7.65;5.82;;;1.90;99.70;;;;;;5012837;28;20305;-65
2023/04/05 04:18:10;;;;;;;7.38;5.70;;;1.70;99.90;;;;;;5024605;28;20194;-61
2023/04/05 04:20:37;;;;;;;6.07;5.40;;;1.70;99.70;;;;;;5020236;28;20720;-61
2023/04/05 04:23:03;;;;;;;6.30;5.70;;;1.70;99.80;;;;;;5023035;28;20731;-64
2023/04/05 04:25:31;;;;;;;7.43;6.63;;;1.60;99.90;;;;;;5023815;28;20272;-64
2023/04/05 04:27:57;;;;;;;6.97;6.28;;;1.40;99.90;;;;;;5022368;28;20601;-64
2023/04/05 04:30:24;;;;;;;8.40;6.00;;;1.30;99.80;;;;;;5020875;28;20198;-64
2023/04/05 04:32:53;;;;;;;6.82;6.03;;;1.40;99.90;;;;;;5026169;28;20214;-64
2023/04/05 04:35:27;;;;;;;7.97;6.97;;;1.80;99.90;;;;;;5024662;28;20624;-63
2023/04/05 04:37:56;;;;;;;8.52;5.60;;;2.00;99.90;;;;;;5024582;28;20186;-64
2023/04/05 04:40:38;;;;;;;8.00;6.15;;;1.60;99.90;;;;;;5027642;28;20186;-65
2023/04/05 04:43:05;;;;;;;6.93;5.97;;;1.70;99.90;;;;;;5022603;28;20201;-64
2023/04/05 04:45:33;;;;;;;6.95;6.28;;;1.00;99.90;;;;;;5021541;28;20620;-63
2023/04/05 04:48:00;;;;;;;8.15;5.68;;;1.50;99.90;;;;;;5020460;28;20967;-64
2023/04/05 04:50:26;;;;;;;8.93;6.47;;;1.70;99.90;;;;;;5020136;28;20213;-64
2023/04/05 04:52:51;;;;;;;8.25;7.07;;;1.30;99.90;;;;;;5024953;28;20284;-64
2023/04/05 04:55:23;;;;;;;6.47;5.87;;;1.50;99.90;;;;;;5026345;28;20182;-64
2023/04/05 04:57:51;;;;;;;8.63;6.53;;;1.20;99.90;;;;;;5021020;28;20181;-65
2023/04/05 05:00:17;;;;;;;6.80;5.95;;;1.30;99.90;;;;;;5024523;28;20193;-64
2023/04/05 05:02:43;;;;;;;7.28;5.88;;;1.50;99.90;;;;;;5021622;28;20212;-62
2023/04/05 05:05:10;;;;;;;8.43;6.13;;;1.30;99.90;;;;;;5026770;28;20560;-62
2023/04/05 05:07:36;;;;;;;10.60;6.82;;;1.40;99.90;;;;;;5023689;28;20450;-64
2023/04/05 05:10:03;;;;;;;10.05;6.22;;;1.50;99.90;;;;;;5025467;28;20205;-67
2023/04/05 05:12:30;;;;;;;8.15;6.60;;;1.50;99.90;;;;;;5024143;28;20263;-65
2023/04/05 05:14:56;;;;;;;7.55;6.78;;;1.10;99.90;;;;;;5024951;28;20186;-65
2023/04/05 05:17:22;;;;;;;8.75;7.05;;;1.20;99.90;;;;;;5022378;28;20682;-63
2023/04/05 05:19:48;;;;;;;7.05;6.35;;;0.90;99.90;;;;;;5022981;28;20185;-67
2023/04/05 05:22:14;;;;;;;9.07;6.90;;;1.40;99.90;;;;;;5023982;28;20523;-66
2023/04/05 05:24:40;;;;;;;7.87;6.87;;;1.50;99.90;;;;;;5027116;28;21250;-65
2023/04/05 05:27:05;;;;;;;9.07;6.97;;;1.30;99.90;;;;;;5026700;28;21167;-66
2023/04/05 05:29:31;;;;;;;6.97;6.30;;;1.30;99.90;;;;;;5025811;28;20453;-67
2023/04/05 05:31:57;;;;;;;10.57;7.03;;;1.30;99.90;;;;;;5029507;28;20202;-67
2023/04/05 05:34:23;;;;;;;11.40;7.53;;;0.70;99.90;;;;;;5029152;28;20297;-67
2023/04/05 05:36:51;;;;;;;8.50;6.60;;;1.00;99.90;;;;;;5027167;28;20441;-69
2023/04/05 05:39:17;;;;;;;9.23;6.80;;;1.50;99.90;;;;;;5029549;28;20533;-68
2023/04/05 05:41:43;;;;;;;7.93;6.13;;;1.70;99.90;;;;;;5029394;28;20281;-67
2023/04/05 05:44:09;;;;;;;9.38;7.18;;;1.80;99.90;;;;;;5029677;28;20193;-68
2023/04/05 05:46:35;;;;;;;12.10;7.07;;;1.60;99.90;;;;;;5028241;28;20325;-67
2023/04/05 05:49:01;;;;;;;7.73;6.20;;;1.20;99.90;;;;;;5026792;28;20502;-66
2023/04/05 05:51:26;;;;;;;7.67;6.97;;;1.70;99.90;;;;;;5029969;28;20290;-67
2023/04/05 05:53:52;;;;;;;11.10;8.53;;;1.90;99.90;;;;;;5028000;28;20210;-68
2023/04/05 05:56:18;;;;;;;8.90;7.40;;;1.90;99.90;;;;;;5022388;28;20453;-69
2023/04/05 05:58:44;;;;;;;12.37;7.80;;;1.60;99.90;;;;;;5028098;28;20179;-67
2023/04/05 06:01:10;;;;;;;11.93;7.53;;;1.80;99.90;;;;;;5021885;28;20577;-67
2023/04/05 06:03:37;;;;;;;9.00;7.30;;;1.60;99.90;;;;;;5024235;28;20636;-67
2023/04/05 06:06:04;;;;;;;13.25;9.35;;;1.90;99.90;;;;;;5028520;28;20199;-67
2023/04/05 06:08:30;;;;;;;11.88;7.57;;;1.90;99.90;;;;;;5031890;28;20179;-66
2023/04/05 06:10:56;;;;;;;8.20;6.80;;;2.10;99.80;;;;;;5025687;28;20186;-66
2023/04/05 06:13:22;;;;;;;8.90;7.30;;;2.00;99.90;;;;;;5024503;28;20215;-65
2023/04/05 06:15:48;;;;;;;13.77;7.27;;;2.20;99.90;;;;;;5029182;28;20237;-64
2023/04/05 06:18:14;;;;;;;8.33;7.43;;;2.40;99.70;;;;;;5025219;28;20444;-66
2023/04/05 06:20:43;;;;;;;12.20;9.00;;;2.70;99.00;;;;;;5024833;28;20537;-66
2023/04/05 06:23:09;;;;;;;9.98;8.10;;;2.40;98.10;;;;;;5027398;28;20834;-67
2023/04/05 06:25:35;;;;;;;9.88;7.60;;;3.00;98.00;;;;;;5025567;28;20189;-68
2023/04/05 06:28:05;;;;;;;8.70;7.80;;;3.30;97.40;;;;;;5025446;28;20188;-65
2023/04/05 06:30:31;;;;;;;12.88;7.03;;;3.70;97.00;;;;;;5025921;28;20973;-64
2023/04/05 06:32:57;;;;;;;11.32;8.35;;;3.10;95.90;;;;;;5028718;28;20676;-70
2023/04/05 06:35:23;;;;;;;8.67;7.77;;;3.70;96.20;;;;;;5024255;28;20185;-65
2023/04/05 06:37:50;;;;;;;10.75;8.43;;;4.10;97.00;;;;;;5024242;28;20215;-66
2023/04/05 06:40:16;;;;;;;8.90;8.00;;;4.80;95.80;;;;;;5025720;28;20219;-65
2023/04/05 06:42:42;;;;;;;10.23;7.95;;;5.30;93.40;;;;;;5024767;28;20275;-67
2023/04/05 06:45:09;;;;;;;8.52;7.72;;;5.60;92.70;;;;;;5025963;28;20651;-66
2023/04/05 06:47:35;;;;;;;9.52;7.90;;;5.60;92.10;;;;;;5029130;28;20807;-68
2023/04/05 06:50:02;;;;;;;9.15;8.18;;;5.90;91.70;;;;;;5024146;28;20671;-66
2023/04/05 06:52:28;;;;;;;8.60;7.68;;;6.40;90.50;;;;;;5021627;28;20292;-65
2023/04/05 06:54:55;;;;;;;8.60;7.70;;;7.30;87.40;;;;;;5024520;28;20213;-69
2023/04/05 06:57:21;;;;;;;12.82;10.10;;;7.90;85.00;;;;;;5024357;28;20186;-66
2023/04/05 06:59:46;;;;;;;9.60;8.43;;;8.60;83.50;;;;;;5027386;28;20174;-64
2023/04/05 07:02:12;;;;;;;9.20;8.30;;;8.70;79.40;;;;;;5028688;28;20817;-65
2023/04/05 07:04:38;;;;;;;9.50;8.50;;;8.30;78.90;;;;;;5025967;28;20188;-65
2023/04/05 07:07:05;;;;;;;9.80;8.25;;;8.60;78.70;;;;;;5028570;28;20189;-65
2023/04/05 07:09:34;;;;;;;12.80;8.23;;;10.20;75.60;;;;;;5025578;28;20271;-65
2023/04/05 07:12:01;;;;;;;10.93;8.02;;;11.50;69.30;;;;;;5025799;28;20210;-65
2023/04/05 07:14:29;;;;;;;9.18;8.25;;;13.00;64.30;;;;;;5030309;28;20660;-65
2023/04/05 07:16:55;;;;;;;8.43;7.60;;;14.40;58.50;;;;;;5026539;28;20181;-66
2023/04/05 07:19:21;;;;;;;9.50;7.50;;;15.70;55.10;;;;;;5026589;28;20190;-65
2023/04/05 07:21:47;;;;;;;8.23;7.47;;;16.70;51.50;;;;;;5026915;28;20483;-66
2023/04/05 07:24:13;;;;;;;9.43;8.55;;;16.80;49.80;;;;;;5014736;28;20883;-67
2023/04/05 07:26:42;;;;;;;12.60;8.50;;;16.80;47.80;;;;;;5022939;28;20269;-67
2023/04/05 07:29:11;;;;;;;9.30;8.43;;;17.20;48.30;;;;;;5022827;28;20198;-67
2023/04/05 07:31:38;;;;;;;11.60;9.48;;;16.50;47.30;;;;;;5023691;28;20291;-67
2023/04/05 07:34:05;;;;;;;9.85;8.85;;;16.20;47.30;;;;;;5023055;28;20233;-67
2023/04/05 07:36:30;;;;;;;9.20;8.30;;;17.20;47.80;;;;;;5024748;28;20202;-67
2023/04/05 07:38:56;;;;;;;9.67;8.80;;;18.10;46.50;;;;;;5025444;28;20563;-68
2023/04/05 07:41:24;;;;;;;11.75;9.00;;;19.00;44.70;;;;;;5022750;28;20205;-67
2023/04/05 07:43:50;;;;;;;9.50;8.65;;;18.90;43.50;;;;;;5024294;28;20553;-67
2023/04/05 07:46:16;;;;;;;9.90;9.00;;;18.90;43.20;;;;;;5020956;28;20182;-67
2023/04/05 07:48:41;;;;;;;10.50;9.50;;;18.80;43.20;;;;;;5026325;28;20186;-67
2023/04/05 07:51:08;;;;;;;9.40;8.50;;;19.70;42.10;;;;;;5022560;28;20205;-67
2023/04/05 07:53:36;;;;;;;10.43;9.35;;;19.70;40.70;;;;;;5025376;28;20683;-67
2023/04/05 07:56:15;;;;;;;9.23;8.43;;;19.50;40.20;;;;;;5023074;28;20636;-67
2023/04/05 07:58:41;;;;;;;9.57;8.48;;;19.30;41.50;;;;;;5027167;28;20177;-68
2023/04/05 08:01:09;;;;;;;16.90;13.43;;;20.00;40.70;;;;;;5025445;28;20178;-67
2023/04/05 08:03:36;;;;;;;10.30;9.30;;;17.90;39.90;;;;;;5023100;28;20453;-67
2023/04/05 08:06:18;;;;;;;10.40;9.40;;;18.20;42.10;;;;;;5024707;28;20182;-67
2023/04/05 08:08:45;;;;;;;11.82;10.68;;;19.30;41.10;;;;;;5022601;28;20187;-67
2023/04/05 08:11:11;;;;;;;12.38;11.18;;;18.60;40.30;;;;;;5026507;28;20297;-67
2023/04/05 08:13:40;;;;;;;9.90;8.87;;;18.60;40.40;;;;;;5025339;28;20297;-66
2023/04/05 08:16:06;;;;;;;9.93;9.13;;;18.90;39.60;;;;;;5023598;28;20449;-67
2023/04/05 08:18:32;;;;;;;10.52;9.63;;;19.90;38.90;;;;;;5025090;28;20205;-66
2023/04/05 08:20:57;;;;;;;10.63;9.43;;;20.40;38.20;;;;;;5022186;28;20178;-66
2023/04/05 08:23:23;;;;;;;10.67;9.67;;;20.40;37.50;;;;;;5027426;28;20277;-67
2023/04/05 08:25:49;;;;;;;11.07;9.93;;;20.90;37.20;;;;;;5022441;28;20273;-67
2023/04/05 08:28:14;;;;;;;14.10;9.60;;;20.70;35.80;;;;;;5022490;28;20204;-67
2023/04/05 08:30:41;;;;;;;16.00;9.97;;;18.70;35.70;;;;;;5024041;28;20193;-68
2023/04/05 08:33:07;;;;;;;11.88;10.77;;;19.40;37.30;;;;;;5026786;28;20210;-67
2023/04/05 08:35:35;;;;;;;10.77;8.60;;;19.90;36.80;;;;;;5022540;28;20686;-68
2023/04/05 08:38:01;;;;;;;11.27;9.37;;;20.00;36.40;;;;;;5021940;28;20191;-68
2023/04/05 08:40:38;;;;;;;10.10;9.20;;;20.80;35.40;;;;;;5014866;28;20453;-67
2023/04/05 08:43:12;;;;;;;9.98;9.18;;;21.40;35.20;;;;;;5024594;28;20293;-66
2023/04/05 08:45:46;;;;;;;11.97;8.83;;;20.10;33.40;;;;;;5026510;28;20182;-67
2023/04/05 08:48:12;;;;;;;14.47;9.90;;;20.80;34.80;;;;;;5024521;28;20447;-66
2023/04/05 08:50:38;;;;;;;11.93;9.00;;;20.20;34.10;;;;;;5022235;28;20456;-67
2023/04/05 08:53:04;;;;;;;9.20;8.27;;;21.20;34.20;;;;;;5024975;28;20220;-66
2023/04/05 08:55:29;;;;;;;12.17;10.27;;;20.00;33.60;;;;;;5023922;28;20444;-66
2023/04/05 08:57:58;;;;;;;8.83;7.93;;;19.50;34.50;;;;;;5025100;28;20190;-66
2023/04/05 09:00:24;;;;;;;9.75;8.85;;;18.90;34.30;;;;;;5020478;28;20560;-66
2023/04/05 09:02:53;;;;;;;9.80;8.95;;;18.90;34.60;;;;;;5025116;28;20206;-67
2023/04/05 09:05:20;;;;;;;10.52;8.50;;;19.10;35.10;;;;;;5027428;28;20198;-66
2023/04/05 09:07:46;;;;;;;10.90;9.88;;;18.50;34.40;;;;;;5023491;28;20194;-66
2023/04/05 09:10:13;;;;;;;10.82;9.68;;;19.00;35.00;;;;;;5027965;28;20194;-67
2023/04/05 09:12:40;;;;;;;8.70;7.95;;;19.70;34.10;;;;;;5029000;28;20218;-67
2023/04/05 09:15:07;;;;;;;6.78;5.50;;;19.60;33.60;;;;;;5028014;28;20221;-67
2023/04/05 09:17:33;;;;;;;6.80;6.20;;;19.60;32.50;;;;;;5029262;28;20232;-68
2023/04/05 09:19:59;;;;;;;6.15;5.60;;;19.00;30.90;;;;;;5023590;28;20186;-62
2023/04/05 09:22:24;;;;;;;7.37;5.63;;;18.40;31.90;;;;;;5022029;28;20208;-65
2023/04/05 09:24:50;;;;;;;8.40;7.70;;;18.10;32.10;;;;;;5027682;28;20194;-66
2023/04/05 09:27:19;;;;;;;7.83;7.13;;;16.80;32.50;;;;;;5024754;28;20445;-61
2023/04/05 09:29:46;;;;;;;7.90;7.30;;;16.70;35.10;;;;;;5024704;28;20962;-62
2023/04/05 09:32:13;;;;;;;6.60;6.00;;;17.30;34.50;;;;;;5026110;28;20726;-68
2023/04/05 09:34:41;;;;;;;7.47;6.68;;;16.80;34.30;;;;;;5027220;28;20450;-67
2023/04/05 09:37:17;;;;;;;6.28;5.68;;;16.70;34.10;;;;;;5027023;28;20213;-67
2023/04/05 09:39:44;;;;;;;7.25;6.65;;;17.50;33.60;;;;;;5025248;28;20228;-67
2023/04/05 09:42:15;;;;;;;6.82;6.22;;;18.00;33.30;;;;;;5024426;28;20206;-68
2023/04/05 09:45:01;;;;;;;6.72;6.13;;;17.80;33.70;;;;;;5028306;28;21012;-67
2023/04/05 09:47:31;;;;;;;6.47;5.80;;;16.90;32.90;;;;;;5028217;28;20191;-67
2023/04/05 09:49:58;;;;;;;6.90;6.20;;;18.00;32.90;;;;;;5020275;28;20558;-67
2023/04/05 09:52:30;;;;;;;7.60;6.07;;;18.10;32.50;;;;;;5028476;28;20823;-65
2023/04/05 09:54:58;;;;;;;7.00;6.25;;;17.90;32.30;;;;;;5025571;28;20199;-65
2023/04/05 09:57:26;;;;;;;6.80;6.25;;;18.30;32.30;;;;;;5027200;28;20182;-65
2023/04/05 09:59:52;;;;;;;6.80;6.25;;;18.80;32.00;;;;;;5027712;28;20591;-65
2023/04/05 10:02:18;;;;;;;6.28;5.68;;;18.90;31.90;;;;;;5028566;28;20198;-67
2023/04/05 10:04:47;;;;;;;7.13;6.53;;;18.70;31.10;;;;;;5026395;28;20185;-66
2023/04/05 10:07:13;;;;;;;7.10;6.47;;;18.30;32.00;;;;;;5023011;28;20458;-65
2023/04/05 10:09:40;;;;;;;6.50;6.00;;;17.40;32.80;;;;;;5023737;28;20210;-65
2023/04/05 10:12:07;;;;;;;6.10;5.60;;;17.40;33.00;;;;;;5019137;28;20211;-66
2023/04/05 10:14:35;;;;;;;8.60;5.60;;;17.10;32.80;;;;;;5027321;28;20210;-66
2023/04/05 10:17:22;;;;;;;6.65;6.05;;;17.10;32.90;;;;;;5025838;28;20266;-67
2023/04/05 10:20:12;;;;;;;6.00;5.40;;;17.10;33.30;;;;;;5025603;28;20174;-66
2023/04/05 10:22:56;;;;;;;7.93;7.15;;;16.90;32.90;;;;;;5025568;28;20206;-66
2023/04/05 10:25:39;;;;;;;7.28;6.43;;;15.90;33.20;;;;;;5026958;28;20178;-69
2023/04/05 10:28:10;;;;;;;6.50;5.90;;;15.80;34.50;;;;;;5026221;28;20197;-65
2023/04/05 10:30:42;;;;;;;6.82;5.60;;;15.70;34.30;;;;;;5028076;28;20182;-65
2023/04/05 10:33:16;;;;;;;5.72;5.18;;;15.10;34.70;;;;;;5026847;28;20214;-66
2023/04/05 10:36:01;;;;;;;5.97;5.47;;;15.40;34.40;;;;;;5026112;28;20704;-67
2023/04/05 10:38:28;;;;;;;6.82;6.22;;;16.10;34.90;;;;;;5025563;28;20702;-65
2023/04/05 10:41:09;;;;;;;6.43;5.82;;;16.30;35.00;;;;;;5025670;28;20209;-63
2023/04/05 10:43:38;;;;;;;7.40;6.20;;;16.00;35.80;;;;;;5021525;28;20634;-63
2023/04/05 10:46:06;;;;;;;7.45;6.43;;;15.80;36.20;;;;;;5029158;28;20179;-66
2023/04/05 10:48:50;;;;;;;9.45;8.05;;;15.70;35.40;;;;;;5023249;28;20217;-64
2023/04/05 10:51:15;;;;;;;7.10;6.40;;;15.00;36.10;;;;;;5026807;28;20317;-62
2023/04/05 10:53:42;;;;;;;6.37;5.77;;;15.80;36.90;;;;;;5025301;28;20293;-63
2023/04/05 10:56:08;;;;;;;6.30;5.70;;;15.80;34.90;;;;;;5018156;28;20221;-63
2023/04/05 10:58:35;;;;;;;5.40;5.00;;;15.80;34.60;;;;;;5029845;28;20268;-63
2023/04/05 11:01:03;;;;;;;5.50;5.00;;;16.00;34.00;;;;;;5029062;28;20186;-63
2023/04/05 11:03:43;;;;;;;6.82;6.03;;;15.70;33.90;;;;;;5027487;28;20186;-63
2023/04/05 11:06:27;;;;;;;8.10;6.15;;;16.00;34.40;;;;;;5023506;28;20178;-63
2023/04/05 11:09:06;;;;;;;5.50;5.10;;;16.20;34.10;;;;;;5024932;28;20228;-63
2023/04/05 11:11:38;;;;;;;6.40;5.90;;;15.60;34.80;;;;;;5024716;28;20713;-63
2023/04/05 11:14:16;;;;;;;6.13;5.53;;;15.10;35.00;;;;;;5021826;28;20215;-63
2023/04/05 11:16:46;;;;;;;5.88;5.40;;;14.80;36.00;;;;;;5026628;28;20182;-63
2023/04/05 11:19:11;;;;;;;7.15;6.55;;;15.10;37.00;;;;;;5024283;28;20186;-67
2023/04/05 11:21:37;;;;;;;6.43;5.87;;;15.00;36.70;;;;;;5022089;28;20217;-63
2023/04/05 11:24:05;;;;;;;6.77;6.27;;;15.00;36.10;;;;;;5024263;28;20225;-63
2023/04/05 11:26:46;;;;;;;6.65;6.05;;;15.40;35.90;;;;;;5021032;28;20184;-63
2023/04/05 11:29:14;;;;;;;6.63;6.03;;;15.40;35.70;;;;;;5027283;28;20270;-63
2023/04/05 11:31:59;;;;;;;6.90;6.30;;;15.60;35.90;;;;;;5027264;28;20307;-64
2023/04/05 11:34:25;;;;;;;6.63;6.03;;;16.10;35.60;;;;;;5022295;28;20301;-63
2023/04/05 11:36:50;;;;;;;6.33;5.80;;;15.90;35.10;;;;;;5027499;28;20196;-64
2023/04/05 11:42:04;;;;;;;5.43;4.93;;;15.30;34.40;;;;;;5024039;28;20544;-64
2023/04/05 11:44:41;;;;;;;6.57;5.53;;;15.00;35.10;;;;;;5022588;28;20205;-64
2023/04/05 11:47:08;;;;;;;6.40;5.85;;;14.90;34.70;;;;;;5023887;28;20186;-64
2023/04/05 11:49:34;;;;;;;7.15;5.55;;;14.50;34.80;;;;;;5023964;28;20190;-64
2023/04/05 11:52:10;;;;;;;5.97;5.38;;;15.00;36.10;;;;;;5022274;28;20625;-65
2023/04/05 11:54:36;;;;;;;7.65;7.00;;;14.80;35.40;;;;;;5025234;28;20367;-64
2023/04/05 11:57:03;;;;;;;5.45;5.00;;;14.60;36.20;;;;;;5024299;28;20202;-62
2023/04/05 11:59:30;;;;;;;7.30;6.00;;;14.70;36.80;;;;;;5025004;28;20178;-64
2023/04/05 12:02:06;;;;;;;7.93;7.22;;;15.20;36.80;;;;;;5024385;28;20967;-64
2023/04/05 12:04:32;;;;;;;9.50;8.50;;;14.80;36.40;;;;;;5023392;28;20553;-63
2023/04/05 12:07:10;;;;;;;6.40;5.90;;;14.40;36.80;;;;;;5024199;28;20197;-63
2023/04/05 12:09:36;;;;;;;6.90;6.22;;;14.00;37.60;;;;;;5023096;28;20221;-63
2023/04/05 12:12:01;;;;;;;6.27;5.67;;;13.90;38.00;;;;;;5020935;28;20653;-63
2023/04/05 12:14:27;;;;;;;6.33;5.67;;;13.30;37.70;;;;;;5025187;28;20221;-64
2023/04/05 12:16:53;;;;;;;5.97;5.47;;;13.00;37.90;;;;;;5026544;28;20995;-65
2023/04/05 12:19:21;;;;;;;7.97;7.17;;;12.50;38.50;;;;;;5021347;28;20676;-64
2023/04/05 12:21:47;;;;;;;6.22;5.72;;;12.10;40.20;;;;;;5022339;28;20620;-63
2023/04/05 12:24:13;;;;;;;7.50;6.77;;;12.30;39.90;;;;;;5021155;28;20190;-65
2023/04/05 12:26:39;;;;;;;5.20;4.70;;;12.30;39.30;;;;;;5019539;28;20181;-66
2023/04/05 12:29:05;;;;;;;7.55;5.95;;;12.30;39.80;;;;;;5024740;28;20185;-66
2023/04/05 12:31:40;;;;;;;6.83;5.67;;;12.60;39.60;;;;;;5021268;28;20213;-66
2023/04/05 12:34:07;;;;;;;6.13;5.63;;;12.10;39.70;;;;;;5020141;28;20247;-65
2023/04/05 12:36:33;;;;;;;6.50;5.90;;;12.10;39.90;;;;;;5026967;28;20204;-65
2023/04/05 12:39:00;;;;;;;5.50;5.00;;;12.00;39.90;;;;;;5029949;28;20205;-65
2023/04/05 12:41:32;;;;;;;6.07;5.50;;;11.70;39.30;;;;;;5025615;28;20297;-66
2023/04/05 12:44:04;;;;;;;7.13;5.90;;;11.90;40.60;;;;;;5029353;28;20809;-65
2023/04/05 12:46:42;;;;;;;6.20;5.70;;;11.70;40.00;;;;;;5030078;28;20326;-65
2023/04/05 12:49:13;;;;;;;7.95;6.50;;;11.70;40.70;;;;;;5030718;28;20185;-65
2023/04/05 12:51:46;;;;;;;7.68;6.35;;;11.70;42.30;;;;;;5026111;28;20229;-65
2023/04/05 12:54:22;;;;;;;9.75;6.15;;;11.70;40.80;;;;;;5026874;28;20204;-66
2023/04/05 12:56:54;;;;;;;5.18;4.68;;;11.70;40.80;;;;;;5027655;28;20177;-67
2023/04/05 12:59:20;;;;;;;5.82;5.25;;;11.60;40.00;;;;;;5024991;28;20232;-63